ADDS METAR Data INFO
IDs: Format: Raw Decoded Include TAF

Data at: 0349 UTC 18 Oct 2017

KTIX 180047Z 01013KT 7SM BKN015 BKN030 25/24 A3006 RMK LAST
KTIX 172347Z 01011KT 7SM SCT040 BKN090 24/23 A3005 RMK SHRA VCN
KTIX 172250Z 03012KT 5SM -RA BKN017 BKN090 25/24 A3004 RMK SHRA VCN
KTIX 172147Z 35012KT 7SM SCT016 BKN095 27/22 A3002
KTIX 172047Z 35015KT 7SM FEW026 BKN095 27/22 A3002
KTIX 171947Z 02015KT 7SM FEW017 BKN095 28/21 A3003
KTIX 171847Z 02012KT 7SM SCT017 BKN120 28/21 A3003
KTIX 171750Z 03012KT 7SM SCT015 BKN025 29/21 A3004
KTIX 171647Z 03010KT 7SM SCT015 BKN025 27/24 A3006
KTIX 171547Z 01010KT 7SM SCT015 BKN025 28/24 A3006
KTIX 171447Z 01010KT 7SM SCT015 BKN025 28/24 A3007
KTIX 171247Z 34010KT 7SM BKN034 22/21 A3004
KTIX 171147Z 34010KT 7SM BKN034 22/21 A3002
KTIX 171047Z 34010KT 7SM BKN120 22/21 A3001 RMK FIRST
KTIX 170047Z 06010KT 7SM FEW030 28/24 A2997 RMK LAST
KTIX 162347Z 07010KT 7SM FEW030 28/24 A2995
KTIX 162247Z 07005KT 7SM FEW030 29/24 A2994
KTIX 162147Z 06010KT 7SM SCT025 30/23 A2993
KTIX 162047Z 07010KT 7SM SCT025 31/23 A2993
KTIX 161950Z 05012KT 7SM BKN025 31/23 A2993 RMK VCSH
KTIX 161855Z 08012KT 7SM BKN025 31/23 A2994
KTIX 161748Z 08009KT 7SM BKN035 31/24 A2997
KTIX 161650Z 08009KT 7SM BKN030 31/22 A3000
KTIX 161555Z 08009KT 7SM BKN027 31/24 A3001
KTIX 161450Z 00000KT 7SM BKN023 29/24 A3003
KTIX 161347Z 00000KT 7SM SCT020 29/25 A3003
KTIX 161247Z 00000KT 7SM SKC 25/24 A3001
KTIX 161147Z 00000KT 7SM SKC 24/23 A3001
KTIX 161047Z 00000KT 7SM SKC 25/24 A2999 RMK FIRST
KTIX 160047Z 08005KT 7SM FEW030 27/26 A3003 RMK LAST
KTIX 152347Z 08010KT 7SM FEW030 28/27 A3002
KTIX 152247Z 08010KT 7SM FEW030 28/26 A3000
KTIX 152147Z 07010KT 7SM SCT030 29/27 A3000
KTIX 152047Z 08010KT 7SM SCT030 31/24 A3001
KTIX 151947Z 10010KT 7SM SCT030 30/24 A3001
KTIX 151847Z 08010KT 7SM SCT030 32/23 A3003
KTIX 151747Z 10008KT 7SM SCT032 31/23 A3006
KTIX 151547Z 09010KT 7SM SCT025 31/24 A3009
KTIX 151455Z 08012KT 7SM SCT025 30/23 A3010
KTIX 151348Z 08014KT 7SM SCT023 30/27 A3009
KTIX 151250Z 08014KT 7SM SCT021 28/27 A3008
KTIX 151150Z 05008KT 7SM SCT021 BKN075 27/26 A3007
KTIX 151050Z 06010KT 7SM SCT022 BKN040 27/26 A3006 RMK FIRST
KTIX 150047Z 07009KT 7SM SCT034 28/22 A3010 RMK LAST
KTIX 142347Z 09009KT 7SM SCT029 28/22 A3009
KTIX 142247Z 09015KT 7SM SCT031 28/21 A3008
KTIX 142147Z 09015KT 7SM SCT034 29/21 A3007
KTIX 142050Z 07015KT 7SM SCT034 30/20 A3008
KTIX 141947Z 07015G22KT 7SM SCT032 30/21 A3008
KTIX 141750Z 07020KT 7SM SCT034 30/22 A3011
KTIX 141653Z 08018KT 7SM SCT033 31/21 A3012
KTIX 141452Z 08018KT 7SM FEW025 31/21 A3014
KTIX 141350Z 07020KT 7SM BKN022 29/24 A3013
KTIX 141255Z 08016KT 7SM SCT023 SCT110 28/27 A3011
KTIX 141147Z 07013KT 7SM SCT023 BKN110 26/25 A3009
KTIX 141050Z 08012G22KT 3SM RA SCT012 BKN027 25/24 A3008 RMK FIRST
KTIX 140047Z 08006KT 7SM SCT015 BKN034 25/24 A3004 RMK LAST
KTIX 132347Z 06009KT 3SM RA BKN008 OVC020 26/25 A3002
KTIX 132247Z 06012KT 6SM BR BKN016 BKN050 26/25 A3002
KTIX 132147Z 09015G23KT 4SM -RA BKN016 BKN035 27/26 A3002
KTIX 132047Z 08015KT 7SM FEW020 BKN035 28/25 A3001 RMK VCSH
KTIX 131947Z 08018G24KT 5SM BR SCT023 BKN060 28/26 A3001 RMK VCSH
KTIX 131848Z 08015G25KT 7SM SCT025 BKN040 30/24 A3001
KTIX 131750Z 08015G22KT 6SM BR SCT023 BKN033 29/27 A3003 RMK VCSH
KTIX 131650Z 07015KT 4SM -RA SCT022 BKN030 29/27 A3004 RMK SHRA VCN
KTIX 131555Z 07020KT 7SM SCT026 BKN060 31/23 A3006
KTIX 131447Z 07018KT 7SM SCT022 BKN065 29/24 A3006
KTIX 131347Z 05015KT 7SM SCT022 BKN060 29/28 A3004
KTIX 131255Z 06014KT 7SM SCT020 BKN046 28/27 A3003
KTIX 131147Z 07014KT 7SM SCT022 BKN065 28/26 A3001
KTIX 131050Z 06010KT 7SM SCT022 27/26 A3000 RMK FIRST
KTIX 130047Z 06015KT 7SM SCT023 BKN042 28/25 A2999 RMK LAST
KTIX 122347Z 05015KT 7SM SCT023 BKN042 28/26 A2998
KTIX 122247Z 05016KT 7SM SCT023 BKN034 28/24 A2996
KTIX 122153Z 05015KT 7SM SCT023 BKN034 28/25 A2995
KTIX 122052Z 05018KT 6SM SCT026 BKN042 30/23 A2995
KTIX 121952Z 05015KT 7SM BKN027 BKN045 29/22 A2996
KTIX 121847Z 05018KT 7SM SCT028 BKN050 31/22 A2996
KTIX 121755Z 04018KT 7SM SCT032 BKN050 31/22 A2996
KTIX 121647Z 04021KT 7SM BKN048 31/21 A2999
KTIX 121547Z 03017KT 7SM BKN033 29/21 A3001
KTIX 121447Z 04013KT 7SM BKN033 29/21 A3001
KTIX 121348Z 02007KT 7SM SCT040 28/19 A3001
KTIX 121248Z 02007KT 7SM SKC 28/21 A2999
KTIX 121148Z 02007KT 7SM SKC 25/21 A2997
KTIX 121048Z 02007KT 7SM SKC 25/21 A2997 RMK FIRST
KTIX 120048Z 08016KT 7SM FEW025 28/22 A3002 RMK LAST
KTIX 112247Z 06014KT 7SM SCT026 29/22 A3000
KTIX 112147Z 08017KT 7SM FEW030 30/22 A2999
KTIX 112059Z 05014KT 7SM SCT030 31/22 A2999
KTIX 111947Z 08021KT 7SM SCT030 31/22 A2999
KTIX 111850Z 08015KT 7SM SCT030 31/22 A3000
KTIX 111750Z 08014KT 7SM BKN028 29/23 A3001 RMK SHRA VCN
KTIX 111647Z 08010KT 7SM SCT032 BKN060 32/22 A3003
KTIX 111547Z 08015KT 7SM SCT034 31/22 A3005
KTIX 111450Z 08011KT 7SM SCT028 31/22 A3005
KTIX 111347Z 08015KT 7SM SCT034 29/24 A3005
KTIX 111247Z 08006KT 7SM SCT030 28/26 A3004
KTIX 111147Z 08006KT 7SM SKC 27/25 A3002
KTIX 102350Z 08008KT 7SM SKC 28/23 A3004
KTIX 102250Z 11008KT 7SM SCT028 29/23 A3003
KTIX 102150Z 11013KT 7SM SCT028 31/23 A3002
KTIX 102050Z 13012KT 7SM SCT028 32/23 A3002
KTIX 101950Z 12014KT 7SM SCT028 32/23 A3002
KTIX 101850Z 10012KT 7SM SCT028 32/23 A3004
KTIX 101747Z 13012KT 7SM BKN028 32/24 A3006
KTIX 101647Z 09010KT 7SM SCT028 31/26 A3009
KTIX 101547Z 09005KT 7SM SCT035 31/25 A3009
KTIX 101447Z 09005KT 7SM SCT024 30/24 A3009
KTIX 101347Z 09005KT 7SM SCT021 31/25 A3008
KTIX 101247Z 09005KT 7SM SCT021 29/28 A3007
KTIX 101147Z 09005KT 7SM SKC 27/26 A3005
KTIX 101047Z 09005KT 7SM SKC 27/26 A3003 RMK FIRST
KTIX 100047Z 09005KT 7SM SCT060 28/27 A3002 RMK LAST
KTIX 092347Z 10010KT 7SM SCT018 SCT060 29/27 A3001
KTIX 092247Z 10010KT 7SM SCT023 29/25 A2999
KTIX 092147Z 12010KT 7SM SCT030 30/24 A2998
KTIX 092047Z 11010KT 7SM SCT030 32/24 A2997
KTIX 091850Z 10010KT 7SM SCT025 32/23 A2998
KTIX 091747Z 10010KT 7SM SCT025 32/23 A3001
KTIX 091645Z 18005KT 7SM SCT020 32/24 A3002
KTIX 091545Z 18005KT 7SM SCT020 32/26 A3003
KTIX 091445Z 18005KT 7SM SCT022 31/26 A3004
KTIX 091345Z 18005KT 7SM SCT040 30/28 A3002
KTIX 082355Z 120V15012KT 7SM SCT022 29/28 A2996 RMK LAST
KTIX 082255Z 120V15012KT 7SM SCT022 29/28 A2993
KTIX 082155Z 120V15012KT 7SM SCT022 29/28 A2991
KTIX 082055Z 120V15012KT 7SM SCT022 32/27 A2997
KTIX 081955Z 120V15012KT 7SM SCT022 32/26 A2996
KTIX 081855Z 120V15012KT 7SM SCT022 33/26 A2997
KTIX 081755Z 15012KT 7SM SCT022 BKN060 33/27 A2995
KTIX 081655Z 15005KT 7SM SCT025 BKN060 32/27 A2998
KTIX 081550Z 14008KT 7SM SCT020 33/26 A2998
KTIX 081255Z 18008KT 7SM SCT010 29/28 A2997
KTIX 081150Z 18006KT 7SM FEW120 27/26 A2996
KTIX 081052Z 16006KT 7SM FEW120 27/26 A2996 RMK FIRST
KTIX 080047Z 14015KT 7SM BKN014 29/28 A2998 RMK LAST
KTIX 072347Z 13015KT 7SM BKN014 29/28 A2997
KTIX 072247Z 13015KT 7SM BKN014 29/28 A2994
KTIX 072147Z 13015KT 7SM BKN016 30/28 A2995
KTIX 072055Z 13015KT 7SM SCT019 SCT027 31/27 A2995
KTIX 071955Z 13015KT 7SM SCT022 32/26 A2996
KTIX 071847Z 12015KT 7SM SCT020 32/26 A2996
KTIX 071747Z 12012KT 7SM SCT035 32/26 A2997
KTIX 071647Z 12010KT 7SM SCT024 32/26 A2998
KTIX 071547Z 13008KT 7SM BKN020 32/26 A3000
KTIX 071447Z VRB05KT 7SM BKN040 30/28 A3000
KTIX 071355Z VRB05KT 7SM BKN040 29/28 A2999
KTIX 071247Z 11005KT 7SM BKN035 27/26 A2996
KTIX 071147Z 11005KT 5SM BR SCT020 26/26 A2994
KTIX 071050Z 11005KT 7SM BKN011 26/26 A2994 RMK FIRST
KTIX 070047Z 08004KT 7SM SCT120 27/27 A2995 RMK LAST
KTIX 062347Z 08004KT 7SM SCT040 BKN120 28/27 A2994
KTIX 062247Z 12010KT 7SM SCT040 BKN120 29/28 A2994
KTIX 062147Z 14010KT 7SM SCT080 BKN120 29/28 A2994
KTIX 062048Z 12010KT 7SM SCT025 BKN100 31/26 A2994
KTIX 061950Z 12010KT 7SM SCT025 32/26 A2994
KTIX 061855Z 11010KT 7SM SCT025 32/26 A2995
KTIX 061747Z 12010KT 7SM SCT021 BKN060 32/27 A2998
KTIX 061556Z 10008KT 7SM BKN021 31/26 A2999
KTIX 061447Z 05007KT 7SM BKN013 29/28 A3000
KTIX 061347Z 05006KT 7SM FEW013 26/26 A2997
KTIX 061247Z 05006KT 7SM SCT030 25/24 A297
KTIX 061147Z 05006KT 7SM SKC 25/24 A2995
KTIX 061050Z 09006KT 7SM SKC 25/24 A2994 RMK FIRST
KTIX 060047Z 05005KT 7SM SCT017 BKN030 26/24 A2995 RMK LAST
KTIX 052350Z 08005KT 7SM BKN030 BKN120 26/24 A2993
KTIX 052250Z 08005KT 7SM SCT017 BKN030 BKN120 26/24 A2992
KTIX 052150Z 08008KT 6SM BR FEW035 BKN075 26/25 A2994
KTIX 052050Z 09012KT 5SM BR SCT034 BKN075 26/25 A2995
KTIX 051947Z 11016KT 5SM BR SCT017 BKN033 24/23 A2995 RMK VCSH
KTIX 051853Z 08018KT 4SM BR SCT014 SCT031 BKN042 26/25 A2996 RMK VCSH
KTIX 051747Z 08015G20KT 4SM -RA SCT015 BKN030 26/25 A2997 RMK VCSH
KTIX 051647Z 09015G20KT 3SM -RA SCT010 BKN015 24/23 A3001 RMK VCSH
KTIX 051547Z 07015G20KT 4SM -RA SCT010 BKN015 24/23 A3001 RMK VCSH
KTIX 051447Z 07010G15KT 7SM SCT012 BKN030 25/24 A3000 RMK VCSH
KTIX 051347Z 06010G15KT 7SM SCT011 BKN020 27/26 A3000 RMK VCSH
KTIX 051247Z 07015G20KT 7SM SCT011 BKN020 24/23 A2999 RMK VCSH
KTIX 051147Z 07015G25KT 7SM SCT018 BKN029 21/21 A2997 RMK SHRA VCN
KTIX 051047Z 06010G15KT 7SM BKN020 25/24 A2996
KTIX 050050Z 07025KT 7SM BKN035 28/20 A3008 RMK LAST
KTIX 042355Z 07024KT 7SM BKN037 28/19 A3007
KTIX 042248Z 06025G33KT 7SM SCT035 28/20 A3008
KTIX 042156Z 07020G30KT 7SM SCT035 BKN065 28/20 A3008
KTIX 042052Z 07020G32KT 7SM SCT031 BKN075 28/21 A3008
KTIX 041950Z 07020G30KT 7SM SCT033 BKN090 29/20 A3008
KTIX 041847Z 07020G30KT 7SM SCT029 BKN065 28/22 A3010
KTIX 041750Z 10007KT 7SM SCT025 BKN035 26/24 A3022 RMK SHRA VCSH
KTIX 041650Z 07020G30KT 7SM BKN041 27/22 A3015 RMK SHRA VCN
KTIX 041550Z 07025G35KT 7SM SCT019 BKN035 26/24 A3016 RMK SHRA VCN
KTIX 041450Z 08025G35KT 5SM -RA BKN033 28/21 A3016 RMK SHRA VCN
KTIX 041347Z 08017G25KT 7SM BKN030 28/21 A3016
KTIX 041247Z 08017G25KT 7SM SCT033 BKN043 27/21 A3015
KTIX 041147Z 08020G25KT 7SM SCT030 BKN040 27/20 A3014
KTIX 041047Z 07020G30KT 7SM SCT035 BKN050 27/19 A3014
KTIX 032347Z 06025G35KT 7SM SCT029 BKN065 28/22 A3015
KTIX 032247Z 06025G35KT 7SM SCT029 BKN065 28/21 A3014
KTIX 032155Z 07025G35KT 7SM SCT027 BKN065 28/21 A3014
KTIX 032050Z 07025G35KT 7SM BKN027 OVC065 28/22 A3014
KTIX 031950Z 07025G35KT 7SM BKN027 OVC055 29/22 A3014
KTIX 031850Z 07025G35KT 7SM BKN027 BKN045 29/22 A3015
KTIX 031747Z 07025G40KT 7SM SCT025 BKN034 29/22 A3016
KTIX 031647Z 07015G25KT 7SM SCT025 BKN035 28/23 A3020
KTIX 031347Z 07014G17KT 7SM BKN026 26/24 A3018
KTIX 031247Z 07015G25KT 7SM SCT033 28/21 A3015
KTIX 031147Z 07015G25KT 7SM SCT033 27/20 A3014
KTIX 031047Z 07015G25KT 7SM SCT033 27/21 A3013 RMK FIRST